createdAt,value
2022-08-08T00:09:16.151Z,13.70
2022-08-08T00:20:14.759Z,13.80
2022-08-08T00:22:50.776Z,13.90
2022-08-08T00:29:45.283Z,14.00
2022-08-08T00:52:48.907Z,14.10
2022-08-08T01:04:01.913Z,14.10
2022-08-08T01:11:36.395Z,14.20
2022-08-08T01:22:41.941Z,14.30
2022-08-08T01:25:54.135Z,14.30
2022-08-08T01:28:51.551Z,14.30
2022-08-08T01:32:12.968Z,14.30
2022-08-08T01:35:30.938Z,14.30
2022-08-08T01:38:38.191Z,14.30
2022-08-08T01:41:19.937Z,14.30
2022-08-08T01:43:55.853Z,14.30
2022-08-08T01:46:52.703Z,14.40
2022-08-08T01:49:38.498Z,14.40
2022-08-08T01:52:51.800Z,14.40
2022-08-08T01:56:28.453Z,14.40
2022-08-08T01:58:38.204Z,14.50
2022-08-08T02:01:21.046Z,14.50
2022-08-08T02:03:58.152Z,14.60
2022-08-08T02:06:53.925Z,14.50
2022-08-08T02:10:03.136Z,14.60
2022-08-08T02:12:35.339Z,14.60
2022-08-08T02:15:12.688Z,14.60
2022-08-08T02:17:51.709Z,14.70
2022-08-08T02:21:00.696Z,14.70
2022-08-08T02:23:31.610Z,14.60
2022-08-08T02:26:10.719Z,14.60
2022-08-08T02:28:55.064Z,14.70
2022-08-08T02:32:00.828Z,14.60
2022-08-08T02:35:07.636Z,14.60
2022-08-08T02:37:56.876Z,14.60
2022-08-08T02:40:41.991Z,14.60
2022-08-08T02:44:39.153Z,14.60
2022-08-08T02:47:00.796Z,14.60
2022-08-08T02:49:54.092Z,14.60
2022-08-08T02:53:00.577Z,14.60
2022-08-08T02:56:08.580Z,14.60
2022-08-08T02:59:37.637Z,14.50
2022-08-08T03:05:00.882Z,14.50
2022-08-08T03:06:57.118Z,14.50
2022-08-08T03:09:59.405Z,14.40
2022-08-08T03:13:07.357Z,14.40
2022-08-08T03:16:34.633Z,14.40
2022-08-08T03:19:50.925Z,14.30
2022-08-08T03:22:38.942Z,14.20
2022-08-08T03:25:18.245Z,14.20
2022-08-08T03:28:00.866Z,14.20
2022-08-08T03:30:36.867Z,14.10
2022-08-08T03:33:57.043Z,14.10
2022-08-08T03:36:19.505Z,14.10
2022-08-08T03:38:58.299Z,14.10
2022-08-08T03:42:27.262Z,14.10
2022-08-08T03:44:25.326Z,14.10
2022-08-08T03:46:55.973Z,14.10
2022-08-08T03:49:58.673Z,14.10
2022-08-08T03:52:18.646Z,14.20
2022-08-08T03:55:02.323Z,14.40
2022-08-08T03:58:09.471Z,14.50
2022-08-08T04:00:31.037Z,14.50
2022-08-08T04:03:04.034Z,14.60
2022-08-08T04:05:35.469Z,14.70
2022-08-08T04:08:07.476Z,14.80
2022-08-08T04:10:39.659Z,14.90
2022-08-08T04:13:17.896Z,15.00
2022-08-08T04:16:03.536Z,15.00
2022-08-08T04:18:44.657Z,15.10
2022-08-08T04:21:22.895Z,15.10
2022-08-08T04:24:05.233Z,15.10
2022-08-08T04:26:57.131Z,15.20
2022-08-08T04:29:36.722Z,15.30
2022-08-08T04:32:10.466Z,15.40
2022-08-08T04:34:49.559Z,15.40
2022-08-08T04:37:32.217Z,15.40
2022-08-08T04:40:07.918Z,15.40
2022-08-08T04:42:46.853Z,15.50
2022-08-08T04:45:29.424Z,15.50
2022-08-08T04:48:00.678Z,15.70
2022-08-08T04:50:38.594Z,15.70
2022-08-08T04:53:13.978Z,15.70
2022-08-08T04:55:59.688Z,15.80
2022-08-08T04:58:29.482Z,16.00
2022-08-08T05:01:00.398Z,16.00
2022-08-08T05:04:07.828Z,16.10
2022-08-08T05:06:29.371Z,16.20
2022-08-08T05:09:02.804Z,16.30
2022-08-08T05:11:39.003Z,16.40
2022-08-08T05:14:12.258Z,16.50
2022-08-08T05:16:51.535Z,16.60
2022-08-08T05:20:11.494Z,16.80
2022-08-08T05:22:17.569Z,17.00
2022-08-08T05:24:48.951Z,17.00
2022-08-08T05:27:19.237Z,17.10
2022-08-08T05:29:50.216Z,17.10
2022-08-08T05:32:24.674Z,17.30
2022-08-08T05:35:04.946Z,17.40
2022-08-08T05:37:52.332Z,17.40
2022-08-08T05:40:28.192Z,17.50
2022-08-08T05:43:38.555Z,17.70
2022-08-08T05:46:03.377Z,17.70
2022-08-08T05:48:37.733Z,17.70
2022-08-08T05:51:14.709Z,17.80
2022-08-08T05:53:56.228Z,17.70
2022-08-08T05:56:42.478Z,17.90
2022-08-08T06:00:00.684Z,17.80
2022-08-08T06:02:35.282Z,18.00
2022-08-08T06:05:33.647Z,18.10
2022-08-08T06:08:02.787Z,18.10
2022-08-08T06:10:38.432Z,18.00
2022-08-08T06:13:09.882Z,18.00
2022-08-08T06:15:51.073Z,18.00
2022-08-08T06:18:25.628Z,18.00
2022-08-08T06:20:58.021Z,18.00
2022-08-08T06:23:49.080Z,18.10
2022-08-08T06:26:43.767Z,18.10
2022-08-08T06:29:26.274Z,18.20
2022-08-08T06:32:10.445Z,18.20
2022-08-08T06:34:43.506Z,18.30
2022-08-08T06:37:37.468Z,18.40
2022-08-08T06:40:14.323Z,18.50
2022-08-08T06:42:53.682Z,18.60
2022-08-08T06:45:24.609Z,18.70
2022-08-08T06:48:01.114Z,18.80
2022-08-08T06:50:38.190Z,18.80
2022-08-08T06:53:20.198Z,18.90
2022-08-08T06:56:02.139Z,19.00
2022-08-08T06:58:33.245Z,19.10
2022-08-08T07:01:11.357Z,19.20
2022-08-08T07:04:40.056Z,19.30
2022-08-08T07:06:51.981Z,19.40
2022-08-08T07:09:45.734Z,19.50
2022-08-08T07:12:30.559Z,19.60
2022-08-08T07:15:06.596Z,19.70
2022-08-08T07:18:00.856Z,19.80
2022-08-08T07:20:40.582Z,19.80
2022-08-08T07:23:25.597Z,19.80
2022-08-08T07:26:01.353Z,19.80
2022-08-08T07:28:32.742Z,19.80
2022-08-08T07:31:06.497Z,19.80
2022-08-08T07:33:53.804Z,19.70
2022-08-08T07:36:30.382Z,19.60
2022-08-08T07:39:02.437Z,19.60
2022-08-08T07:42:04.543Z,19.60
2022-08-08T07:44:37.567Z,19.70
2022-08-08T07:47:10.734Z,19.80
2022-08-08T07:49:41.303Z,19.90
2022-08-08T07:52:23.067Z,20.10
2022-08-08T07:55:04.810Z,20.20
2022-08-08T07:57:48.529Z,20.40
2022-08-08T08:00:20.007Z,20.50
2022-08-08T08:03:03.529Z,20.80
2022-08-08T08:05:38.685Z,21.00
2022-08-08T08:08:18.853Z,20.90
2022-08-08T08:10:53.581Z,20.90
2022-08-08T08:13:42.231Z,21.10
2022-08-08T08:16:25.968Z,21.30
2022-08-08T08:18:57.949Z,21.50
2022-08-08T08:21:44.312Z,21.50
2022-08-08T08:24:21.049Z,21.60
2022-08-08T08:27:03.497Z,21.70
2022-08-08T08:29:35.552Z,21.60
2022-08-08T08:32:06.214Z,21.60
2022-08-08T08:34:43.143Z,21.60
2022-08-08T08:37:15.481Z,21.60
2022-08-08T08:40:00.830Z,21.70
2022-08-08T08:42:36.115Z,21.80
2022-08-08T08:45:20.984Z,21.70
2022-08-08T08:47:54.734Z,21.70
2022-08-08T08:50:31.824Z,21.90
2022-08-08T08:53:54.482Z,22.10
2022-08-08T08:56:02.073Z,22.30
2022-08-08T08:58:37.741Z,22.40
2022-08-08T09:01:13.567Z,22.50
2022-08-08T09:03:50.987Z,22.70
2022-08-08T09:06:28.619Z,22.60
2022-08-08T09:09:18.828Z,22.60
2022-08-08T09:12:02.070Z,22.50
2022-08-08T09:14:42.507Z,22.60
2022-08-08T09:17:18.894Z,22.60
2022-08-08T09:22:01.640Z,22.60
2022-08-08T09:22:40.136Z,22.40
2022-08-08T09:25:11.490Z,22.40
2022-08-08T09:27:57.229Z,22.30
2022-08-08T09:30:31.821Z,22.70
2022-08-08T09:33:54.456Z,22.70
2022-08-08T09:35:59.061Z,22.80
2022-08-08T09:38:53.244Z,22.80
2022-08-08T09:42:14.008Z,22.90
2022-08-08T09:44:42.821Z,23.20
2022-08-08T09:48:02.443Z,23.10
2022-08-08T09:50:13.595Z,23.30
2022-08-08T09:52:55.588Z,23.50
2022-08-08T09:55:51.892Z,23.60
2022-08-08T09:58:25.634Z,23.50
2022-08-08T10:00:58.967Z,23.40
2022-08-08T10:03:35.654Z,23.60
2022-08-08T10:06:21.444Z,23.40
2022-08-08T10:09:00.153Z,23.40
2022-08-08T10:12:28.082Z,23.50
2022-08-08T10:14:28.460Z,23.60
2022-08-08T10:17:57.458Z,23.30
2022-08-08T10:20:00.757Z,22.70
2022-08-08T10:22:33.687Z,23.00
2022-08-08T10:25:15.640Z,23.10
2022-08-08T10:27:46.812Z,23.30
2022-08-08T10:31:00.806Z,23.50
2022-08-08T10:33:12.311Z,23.40
2022-08-08T10:36:09.669Z,23.40
2022-08-08T10:38:37.629Z,23.20
2022-08-08T10:41:20.328Z,23.30
2022-08-08T10:43:53.238Z,23.50
2022-08-08T10:46:31.596Z,23.80
2022-08-08T10:49:01.493Z,24.20
2022-08-08T10:51:47.589Z,24.40
2022-08-08T10:54:26.901Z,24.30
2022-08-08T10:57:00.934Z,24.20
2022-08-08T10:59:40.085Z,23.80
2022-08-08T11:02:12.141Z,23.90
2022-08-08T11:04:53.740Z,23.80
2022-08-08T11:08:30.188Z,23.70
2022-08-08T11:10:28.845Z,23.50
2022-08-08T11:13:28.201Z,23.30
2022-08-08T11:15:52.409Z,23.00
2022-08-08T11:18:35.153Z,22.50
2022-08-08T11:21:08.965Z,22.80
2022-08-08T11:23:43.358Z,22.70
2022-08-08T11:26:20.925Z,22.70
2022-08-08T11:29:02.970Z,22.80
2022-08-08T11:31:43.543Z,22.90
2022-08-08T11:34:22.919Z,23.10
2022-08-08T11:36:58.808Z,23.00
2022-08-08T11:39:37.014Z,23.00
2022-08-08T11:42:09.401Z,23.20
2022-08-08T11:44:41.298Z,23.10
2022-08-08T11:47:12.804Z,23.20
2022-08-08T11:49:50.848Z,23.10
2022-08-08T11:52:27.344Z,23.20
2022-08-08T11:54:58.029Z,23.20
2022-08-08T11:57:35.275Z,23.30
2022-08-08T12:00:09.669Z,23.40
2022-08-08T12:02:50.928Z,23.40
2022-08-08T12:05:33.666Z,23.30
2022-08-08T12:08:04.411Z,23.20
2022-08-08T12:10:36.435Z,23.10
2022-08-08T12:13:14.326Z,23.10
2022-08-08T12:15:49.357Z,22.80
2022-08-08T12:18:24.785Z,22.70
2022-08-08T12:20:58.784Z,22.50
2022-08-08T12:23:43.798Z,22.40
2022-08-08T12:26:27.748Z,22.40
2022-08-08T12:29:21.770Z,22.40
2022-08-08T12:32:13.520Z,22.40
2022-08-08T12:34:58.882Z,22.50
2022-08-08T12:37:40.128Z,22.60
2022-08-08T12:40:22.926Z,22.70
2022-08-08T12:42:55.910Z,22.80
2022-08-08T12:45:59.969Z,22.90
2022-08-08T12:48:38.176Z,22.80
2022-08-08T12:51:11.396Z,22.80
2022-08-08T12:53:58.964Z,22.90
2022-08-08T12:56:35.658Z,23.00
2022-08-08T12:59:16.847Z,23.10
2022-08-08T13:01:55.744Z,23.10
2022-08-08T13:04:28.274Z,22.90
2022-08-08T13:07:02.927Z,23.10
2022-08-08T13:10:00.666Z,23.00
2022-08-08T13:12:32.789Z,22.90
2022-08-08T13:15:05.337Z,22.90
2022-08-08T13:17:53.829Z,22.90
2022-08-08T13:20:27.693Z,22.80
2022-08-08T13:25:51.036Z,23.00
2022-08-08T13:28:33.096Z,23.30
2022-08-08T13:31:04.612Z,23.40
2022-08-08T13:33:42.538Z,23.20
2022-08-08T13:36:13.864Z,23.20
2022-08-08T13:38:43.402Z,23.30
2022-08-08T13:41:16.360Z,23.00
2022-08-08T13:43:50.005Z,23.00
2022-08-08T13:46:26.361Z,22.90
2022-08-08T13:50:32.079Z,22.80
2022-08-08T13:51:56.597Z,22.70
2022-08-08T13:54:29.376Z,22.50
2022-08-08T13:57:08.700Z,22.40
2022-08-08T13:59:48.206Z,22.20
2022-08-08T14:02:22.742Z,22.10
2022-08-08T14:05:04.902Z,22.00
2022-08-08T14:07:42.403Z,21.80
2022-08-08T14:10:17.221Z,21.60
2022-08-08T14:12:48.680Z,21.40
2022-08-08T14:15:31.686Z,21.30
2022-08-08T14:18:37.076Z,21.20
2022-08-08T14:21:07.946Z,21.10
2022-08-08T14:24:08.134Z,20.90
2022-08-08T14:26:33.587Z,20.70
2022-08-08T14:29:11.648Z,20.70
2022-08-08T14:32:08.883Z,20.60
2022-08-08T14:34:43.257Z,20.40
2022-08-08T14:37:19.034Z,20.30
2022-08-08T14:39:54.290Z,20.20
2022-08-08T14:42:55.461Z,20.20
2022-08-08T14:45:33.226Z,20.20
2022-08-08T14:48:27.248Z,20.20
2022-08-08T14:51:07.352Z,20.10
2022-08-08T14:53:55.084Z,20.10
2022-08-08T14:56:26.522Z,20.10
2022-08-08T14:58:57.038Z,20.10
2022-08-08T15:01:37.675Z,20.10
2022-08-08T15:04:13.288Z,20.20
2022-08-08T15:06:45.367Z,20.30
2022-08-08T15:09:16.846Z,20.40
2022-08-08T15:11:53.575Z,20.50
2022-08-08T15:14:25.229Z,20.80
2022-08-08T15:16:56.925Z,20.80
2022-08-08T15:19:28.848Z,21.00
2022-08-08T15:21:58.638Z,21.20
2022-08-08T15:24:31.808Z,21.60
2022-08-08T15:27:04.101Z,22.20
2022-08-08T15:29:50.258Z,23.00
2022-08-08T15:32:30.619Z,24.00
2022-08-08T15:35:04.992Z,24.40
2022-08-08T15:37:36.749Z,25.00
2022-08-08T15:40:11.355Z,25.30
2022-08-08T15:42:49.565Z,25.60
2022-08-08T15:45:23.092Z,25.80
2022-08-08T15:48:06.705Z,26.00
2022-08-08T15:51:07.115Z,25.80
2022-08-08T15:53:49.043Z,26.00
2022-08-08T15:56:22.106Z,26.10
2022-08-08T15:58:51.868Z,25.90
2022-08-08T16:01:22.501Z,25.50
2022-08-08T16:03:52.252Z,25.00
2022-08-08T16:06:28.621Z,24.30
2022-08-08T16:13:01.115Z,23.90
2022-08-08T16:13:09.180Z,23.40
2022-08-08T16:14:53.513Z,23.00
2022-08-08T16:17:38.729Z,22.70
2022-08-08T16:20:14.394Z,22.30
2022-08-08T16:22:49.253Z,22.10
2022-08-08T16:25:20.844Z,21.90
2022-08-08T16:27:57.158Z,21.70
2022-08-08T16:30:36.325Z,21.50
2022-08-08T16:33:06.261Z,21.20
2022-08-08T16:35:39.493Z,21.10
2022-08-08T16:38:16.254Z,20.90
2022-08-08T16:40:57.191Z,20.80
2022-08-08T16:43:48.869Z,20.60
2022-08-08T16:46:36.992Z,20.50
2022-08-08T16:49:09.116Z,20.50
2022-08-08T16:55:05.496Z,20.50
2022-08-08T16:55:13.927Z,20.40
2022-08-08T16:58:11.768Z,20.40
2022-08-08T17:00:14.167Z,20.20
2022-08-08T17:02:56.882Z,20.10
2022-08-08T17:05:42.358Z,19.90
2022-08-08T17:08:15.097Z,19.80
2022-08-08T17:10:53.509Z,19.90
2022-08-08T17:13:49.944Z,19.80
2022-08-08T17:16:22.107Z,19.70
2022-08-08T17:18:54.318Z,19.60
2022-08-08T17:21:26.260Z,19.60
2022-08-08T17:24:00.108Z,19.50
2022-08-08T17:26:31.996Z,19.50
2022-08-08T17:29:04.416Z,19.40
2022-08-08T17:31:44.352Z,19.40
2022-08-08T17:34:49.034Z,19.30
2022-08-08T17:37:11.276Z,19.30
2022-08-08T17:40:04.335Z,19.30
2022-08-08T17:42:33.132Z,19.30
2022-08-08T17:45:03.566Z,19.30
2022-08-08T17:47:40.069Z,19.20
2022-08-08T17:50:11.825Z,19.20
2022-08-08T17:52:43.371Z,19.20
2022-08-08T17:56:06.310Z,19.30
2022-08-08T17:58:06.951Z,19.10
2022-08-08T18:00:39.092Z,19.10
2022-08-08T18:03:13.656Z,19.20
2022-08-08T18:05:49.697Z,19.10
2022-08-08T18:08:37.990Z,19.20
2022-08-08T18:11:14.973Z,19.20
2022-08-08T18:13:47.513Z,19.10
2022-08-08T18:16:23.159Z,19.00
2022-08-08T18:18:56.612Z,19.00
2022-08-08T18:22:00.511Z,19.00
2022-08-08T18:24:19.381Z,19.10
2022-08-08T18:26:54.924Z,18.90
2022-08-08T18:29:33.406Z,18.90
2022-08-08T18:32:06.832Z,18.80
2022-08-08T18:34:42.610Z,18.70
2022-08-08T18:37:17.723Z,18.60
2022-08-08T18:40:02.968Z,18.50
2022-08-08T18:42:33.151Z,18.50
2022-08-08T18:45:09.154Z,18.40
2022-08-08T18:47:53.724Z,18.40
2022-08-08T18:50:27.079Z,18.30
2022-08-08T18:52:58.111Z,18.20
2022-08-08T18:55:27.990Z,18.20
2022-08-08T18:57:57.789Z,18.10
2022-08-08T19:00:29.265Z,18.00
2022-08-08T19:03:13.458Z,18.00
2022-08-08T19:05:48.612Z,17.90
2022-08-08T19:08:28.538Z,17.90
2022-08-08T19:11:01.752Z,17.80
2022-08-08T19:13:52.877Z,17.80
2022-08-08T19:16:28.524Z,17.80
2022-08-08T19:22:05.633Z,17.70
2022-08-08T19:24:49.122Z,17.70
2022-08-08T19:27:56.036Z,17.60
2022-08-08T19:33:19.223Z,17.60
2022-08-08T19:36:09.081Z,17.60
2022-08-08T19:38:40.707Z,17.60
2022-08-08T19:41:11.061Z,17.50
2022-08-08T19:44:02.325Z,17.50
2022-08-08T19:46:33.938Z,17.40
2022-08-08T19:49:03.530Z,17.40
2022-08-08T19:51:39.605Z,17.40
2022-08-08T19:54:14.315Z,17.30
2022-08-08T19:57:51.066Z,17.40
2022-08-08T20:00:30.056Z,17.30
2022-08-08T20:03:02.050Z,17.30
2022-08-08T20:06:16.340Z,17.30
2022-08-08T20:08:35.179Z,17.30
2022-08-08T20:11:06.193Z,17.30
2022-08-08T20:14:34.927Z,17.20
2022-08-08T20:16:30.069Z,17.20
2022-08-08T20:19:00.053Z,17.20
2022-08-08T20:21:37.959Z,17.30
2022-08-08T20:24:09.077Z,17.20
2022-08-08T20:26:49.192Z,17.20
2022-08-08T20:29:19.678Z,17.10
2022-08-08T20:32:10.088Z,17.00
2022-08-08T20:34:47.570Z,16.90
2022-08-08T20:37:17.451Z,16.90
2022-08-08T20:39:51.129Z,16.90
2022-08-08T20:42:29.352Z,16.90
2022-08-08T20:45:00.354Z,16.80
2022-08-08T20:47:36.139Z,16.80
2022-08-08T20:50:10.811Z,16.80
2022-08-08T20:52:41.166Z,16.70
2022-08-08T20:55:25.579Z,16.70
2022-08-08T20:57:58.137Z,16.70
2022-08-08T21:00:28.405Z,16.60
2022-08-08T21:02:57.900Z,16.60
2022-08-08T21:05:31.994Z,16.60
2022-08-08T21:08:35.944Z,16.60
2022-08-08T21:10:51.413Z,16.50
2022-08-08T21:13:23.436Z,16.50
2022-08-08T21:16:20.944Z,16.50
2022-08-08T21:18:58.788Z,16.40
2022-08-08T21:21:41.320Z,16.50
2022-08-08T21:24:26.913Z,16.50
2022-08-08T21:27:00.760Z,16.50
2022-08-08T21:30:05.456Z,16.50
2022-08-08T21:32:25.826Z,16.60
2022-08-08T21:34:56.948Z,16.50
2022-08-08T21:37:53.624Z,16.40
2022-08-08T21:40:30.960Z,16.40
2022-08-08T21:43:02.244Z,16.40
2022-08-08T21:48:00.138Z,16.40
2022-08-08T21:48:35.333Z,16.30
2022-08-08T21:51:13.166Z,16.30
2022-08-08T21:54:34.835Z,16.40
2022-08-08T21:56:42.223Z,16.30
2022-08-08T21:59:15.237Z,16.30
2022-08-08T22:01:52.257Z,16.30
2022-08-08T22:04:26.014Z,16.20
2022-08-08T22:06:55.733Z,16.10
2022-08-08T22:09:26.884Z,16.10
2022-08-08T22:12:09.755Z,16.10
2022-08-08T22:14:47.213Z,16.10
2022-08-08T22:17:21.753Z,16.10
2022-08-08T22:20:12.822Z,16.20
2022-08-08T22:22:41.737Z,16.20
2022-08-08T22:25:24.810Z,16.30
2022-08-08T22:28:04.035Z,16.20
2022-08-08T22:30:51.058Z,16.20
2022-08-08T22:34:12.855Z,16.10
2022-08-08T22:36:13.982Z,16.20
2022-08-08T22:38:47.945Z,16.30
2022-08-08T22:41:21.448Z,16.40
2022-08-08T22:44:02.823Z,16.40
2022-08-08T22:46:38.779Z,16.40
2022-08-08T22:49:10.690Z,16.40
2022-08-08T22:51:42.778Z,16.40
2022-08-08T22:54:32.565Z,16.40
2022-08-08T22:57:08.725Z,16.40
2022-08-08T22:59:58.813Z,16.40
2022-08-08T23:02:30.139Z,16.40
2022-08-08T23:05:05.277Z,16.30
2022-08-08T23:07:50.981Z,16.30
2022-08-08T23:10:25.587Z,16.30
2022-08-08T23:12:57.339Z,16.30
2022-08-08T23:16:38.762Z,16.30
2022-08-08T23:18:18.370Z,16.30
2022-08-08T23:20:54.874Z,16.30
2022-08-08T23:23:25.000Z,16.30
2022-08-08T23:25:54.266Z,16.40
2022-08-08T23:28:26.415Z,16.40
2022-08-08T23:30:55.726Z,16.40
2022-08-08T23:34:16.726Z,16.40
2022-08-08T23:36:20.754Z,16.30
2022-08-08T23:38:55.824Z,16.40
2022-08-08T23:41:29.108Z,16.50
2022-08-08T23:43:58.634Z,16.50
2022-08-08T23:49:05.063Z,16.60
2022-08-08T23:49:23.809Z,16.60
2022-08-08T23:52:04.846Z,16.50
2022-08-08T23:54:41.207Z,16.60
2022-08-08T23:57:27.006Z,16.50
